createdAt,value
2022-07-25T00:00:31.841Z,17.21
2022-07-25T00:03:00.005Z,17.26
2022-07-25T00:05:28.299Z,17.30
2022-07-25T00:07:57.698Z,17.35
2022-07-25T00:10:25.856Z,17.25
2022-07-25T00:12:53.729Z,17.44
2022-07-25T00:15:21.681Z,17.44
2022-07-25T00:17:49.671Z,17.55
2022-07-25T00:20:17.643Z,17.58
2022-07-25T00:22:45.694Z,17.62
2022-07-25T00:25:15.062Z,17.65
2022-07-25T00:27:43.018Z,17.68
2022-07-25T00:30:12.070Z,17.68
2022-07-25T00:32:40.031Z,17.68
2022-07-25T00:35:08.460Z,17.69
2022-07-25T00:37:36.597Z,17.69
2022-07-25T00:40:05.367Z,17.68
2022-07-25T00:42:35.058Z,17.71
2022-07-25T00:45:03.096Z,17.76
2022-07-25T00:47:31.466Z,17.78
2022-07-25T00:49:59.409Z,17.81
2022-07-25T00:52:27.676Z,17.86
2022-07-25T00:54:56.847Z,17.86
2022-07-25T00:57:24.860Z,17.70
2022-07-25T00:59:54.174Z,17.89
2022-07-25T01:02:22.423Z,17.67
2022-07-25T01:04:50.386Z,17.93
2022-07-25T01:07:18.615Z,17.95
2022-07-25T01:09:47.199Z,17.81
2022-07-25T01:12:15.105Z,17.98
2022-07-25T01:14:43.092Z,18.01
2022-07-25T01:17:13.423Z,18.01
2022-07-25T01:19:41.350Z,18.01
2022-07-25T01:22:11.199Z,18.01
2022-07-25T01:24:40.861Z,18.01
2022-07-25T01:27:08.923Z,17.99
2022-07-25T01:29:45.394Z,17.99
2022-07-25T01:32:13.633Z,17.75
2022-07-25T01:34:41.487Z,17.96
2022-07-25T01:37:10.825Z,17.94
2022-07-25T01:39:38.707Z,17.95
2022-07-25T01:42:07.570Z,17.95
2022-07-25T01:44:35.645Z,17.96
2022-07-25T01:47:03.529Z,17.96
2022-07-25T01:49:31.576Z,17.94
2022-07-25T01:51:59.796Z,17.90
2022-07-25T01:54:29.231Z,17.94
2022-07-25T01:56:57.110Z,17.94
2022-07-25T01:59:25.182Z,17.95
2022-07-25T02:01:53.081Z,17.93
2022-07-25T02:04:21.129Z,17.91
2022-07-25T02:06:49.649Z,17.89
2022-07-25T02:09:17.515Z,17.90
2022-07-25T02:11:46.849Z,17.90
2022-07-25T02:14:14.914Z,17.93
2022-07-25T02:16:43.021Z,17.95
2022-07-25T02:19:10.977Z,17.87
2022-07-25T02:21:39.177Z,17.90
2022-07-25T02:24:08.144Z,18.04
2022-07-25T02:26:36.294Z,17.96
2022-07-25T02:29:05.976Z,18.06
2022-07-25T02:31:33.818Z,18.10
2022-07-25T02:34:01.764Z,18.03
2022-07-25T02:36:29.784Z,18.04
2022-07-25T02:38:57.688Z,18.12
2022-07-25T02:41:25.528Z,18.13
2022-07-25T02:43:53.729Z,18.13
2022-07-25T02:46:23.123Z,18.11
2022-07-25T02:48:51.150Z,18.08
2022-07-25T02:51:19.808Z,18.10
2022-07-25T02:53:57.113Z,18.05
2022-07-25T02:56:26.082Z,18.09
2022-07-25T02:58:57.548Z,18.13
2022-07-25T03:01:27.318Z,18.16
2022-07-25T03:03:55.302Z,18.19
2022-07-25T03:06:23.385Z,18.20
2022-07-25T03:08:51.539Z,18.20
2022-07-25T03:11:19.473Z,18.26
2022-07-25T03:13:47.569Z,18.29
2022-07-25T03:16:15.821Z,18.30
2022-07-25T03:18:45.095Z,18.29
2022-07-25T03:21:13.006Z,18.27
2022-07-25T03:23:41.213Z,18.31
2022-07-25T03:26:09.079Z,18.35
2022-07-25T03:28:36.924Z,18.38
2022-07-25T03:31:06.319Z,18.26
2022-07-25T03:33:35.053Z,18.25
2022-07-25T03:36:04.966Z,18.52
2022-07-25T03:38:32.996Z,18.59
2022-07-25T03:41:00.960Z,18.60
2022-07-25T03:43:29.756Z,18.66
2022-07-25T03:45:57.998Z,18.62
2022-07-25T03:48:25.974Z,18.73
2022-07-25T03:50:53.916Z,18.76
2022-07-25T03:53:23.592Z,18.78
2022-07-25T03:55:51.601Z,18.79
2022-07-25T03:58:19.554Z,18.81
2022-07-25T04:00:48.859Z,18.79
2022-07-25T04:03:17.043Z,18.75
2022-07-25T04:05:47.533Z,18.83
2022-07-25T04:08:15.864Z,18.80
2022-07-25T04:10:45.299Z,18.90
2022-07-25T04:13:13.255Z,18.91
2022-07-25T04:15:41.474Z,18.89
2022-07-25T04:18:10.123Z,18.92
2022-07-25T04:20:42.672Z,18.87
2022-07-25T04:23:10.633Z,18.98
2022-07-25T04:25:38.690Z,19.00
2022-07-25T04:28:08.008Z,19.01
2022-07-25T04:30:35.979Z,19.04
2022-07-25T04:33:04.170Z,18.71
2022-07-25T04:35:32.276Z,19.02
2022-07-25T04:38:00.290Z,19.10
2022-07-25T04:40:28.254Z,19.13
2022-07-25T04:42:56.542Z,19.16
2022-07-25T04:45:26.240Z,19.20
2022-07-25T04:47:54.279Z,19.19
2022-07-25T04:50:24.915Z,19.20
2022-07-25T04:52:54.070Z,19.27
2022-07-25T04:55:22.343Z,19.35
2022-07-25T04:57:50.431Z,19.49
2022-07-25T05:00:19.166Z,19.62
2022-07-25T05:02:48.432Z,19.51
2022-07-25T05:05:21.110Z,19.74
2022-07-25T05:07:50.000Z,19.83
2022-07-25T05:10:18.186Z,19.68
2022-07-25T05:12:46.195Z,19.81
2022-07-25T05:15:14.180Z,19.86
2022-07-25T05:17:42.105Z,19.83
2022-07-25T05:20:12.734Z,19.81
2022-07-25T05:22:40.718Z,19.80
2022-07-25T05:25:10.970Z,19.80
2022-07-25T05:27:39.872Z,19.79
2022-07-25T05:30:10.907Z,19.86
2022-07-25T05:32:39.593Z,19.07
2022-07-25T05:35:09.504Z,19.85
2022-07-25T05:37:39.344Z,19.89
2022-07-25T05:40:08.548Z,19.86
2022-07-25T05:42:36.712Z,19.85
2022-07-25T05:45:05.586Z,19.90
2022-07-25T05:47:33.649Z,19.93
2022-07-25T05:50:02.289Z,20.07
2022-07-25T05:52:30.472Z,20.01
2022-07-25T05:54:59.910Z,20.14
2022-07-25T05:57:28.030Z,20.13
2022-07-25T05:59:56.064Z,20.09
2022-07-25T06:02:24.300Z,20.14
2022-07-25T06:04:52.253Z,20.19
2022-07-25T06:07:20.233Z,20.28
2022-07-25T06:09:48.187Z,20.27
2022-07-25T06:12:17.514Z,20.24
2022-07-25T06:14:45.469Z,20.30
2022-07-25T06:17:13.559Z,20.32
2022-07-25T06:19:41.506Z,20.35
2022-07-25T06:22:09.491Z,20.36
2022-07-25T06:24:37.510Z,20.39
2022-07-25T06:27:05.938Z,20.32
2022-07-25T06:29:35.293Z,20.04
2022-07-25T06:32:03.240Z,20.37
2022-07-25T06:34:31.552Z,20.45
2022-07-25T06:36:59.484Z,20.54
2022-07-25T06:39:28.700Z,20.60
2022-07-25T06:41:57.444Z,20.72
2022-07-25T06:44:25.362Z,20.39
2022-07-25T06:46:54.730Z,20.80
2022-07-25T06:49:22.856Z,20.83
2022-07-25T06:51:50.853Z,20.86
2022-07-25T06:54:19.258Z,20.97
2022-07-25T06:56:47.514Z,21.19
2022-07-25T06:59:15.652Z,20.83
2022-07-25T07:01:48.204Z,21.56
2022-07-25T07:04:20.605Z,21.44
2022-07-25T07:06:48.741Z,21.06
2022-07-25T07:09:16.660Z,21.43
2022-07-25T07:11:44.649Z,21.44
2022-07-25T07:14:12.600Z,21.28
2022-07-25T07:16:41.408Z,21.43
2022-07-25T07:19:11.100Z,21.53
2022-07-25T07:21:40.488Z,21.62
2022-07-25T07:24:18.521Z,21.77
2022-07-25T07:26:52.952Z,21.91
2022-07-25T07:29:20.846Z,22.12
2022-07-25T07:31:48.856Z,22.24
2022-07-25T07:34:17.189Z,22.10
2022-07-25T07:36:46.471Z,22.10
2022-07-25T07:39:14.688Z,22.25
2022-07-25T07:41:42.886Z,22.28
2022-07-25T07:44:11.810Z,22.44
2022-07-25T07:46:39.742Z,22.82
2022-07-25T07:49:08.212Z,22.98
2022-07-25T07:51:36.497Z,23.17
2022-07-25T07:54:23.994Z,23.32
2022-07-25T07:56:52.015Z,23.38
2022-07-25T07:59:20.094Z,23.44
2022-07-25T08:01:48.138Z,23.36
2022-07-25T08:04:16.448Z,23.18
2022-07-25T08:06:44.453Z,23.56
2022-07-25T08:09:14.057Z,24.02
2022-07-25T08:11:42.078Z,24.08
2022-07-25T08:14:10.542Z,23.99
2022-07-25T08:16:38.864Z,24.17
2022-07-25T08:19:06.823Z,24.33
2022-07-25T08:21:34.788Z,24.86
2022-07-25T08:24:03.128Z,25.64
2022-07-25T08:26:33.969Z,26.09
2022-07-25T08:29:18.261Z,26.05
2022-07-25T08:31:47.088Z,26.28
2022-07-25T08:34:15.198Z,26.42
2022-07-25T08:36:43.150Z,26.48
2022-07-25T08:39:11.186Z,27.11
2022-07-25T08:41:42.370Z,26.12
2022-07-25T08:44:10.806Z,25.28
2022-07-25T08:46:41.880Z,24.84
2022-07-25T08:49:10.688Z,24.57
2022-07-25T08:51:40.954Z,24.37
2022-07-25T08:54:10.497Z,24.07
2022-07-25T08:56:38.829Z,24.15
2022-07-25T08:59:09.835Z,23.92
2022-07-25T09:01:40.651Z,23.71
2022-07-25T09:04:10.307Z,23.51
2022-07-25T09:06:38.735Z,23.22
2022-07-25T09:09:08.747Z,23.05
2022-07-25T09:11:38.275Z,22.89
2022-07-25T09:14:14.743Z,22.87
2022-07-25T09:16:45.061Z,22.79
2022-07-25T09:19:16.283Z,22.72
2022-07-25T09:21:46.012Z,22.81
2022-07-25T09:24:17.018Z,22.98
2022-07-25T09:26:49.548Z,23.16
2022-07-25T09:29:21.602Z,23.16
2022-07-25T09:31:50.657Z,23.21
2022-07-25T09:34:31.297Z,23.21
2022-07-25T09:36:59.584Z,23.31
2022-07-25T09:39:35.334Z,23.33
2022-07-25T09:42:04.276Z,23.30
2022-07-25T09:44:33.502Z,23.44
2022-07-25T09:47:12.020Z,23.15
2022-07-25T09:49:44.257Z,23.60
2022-07-25T09:52:13.231Z,23.84
2022-07-25T09:54:41.784Z,23.99
2022-07-25T09:57:09.742Z,24.46
2022-07-25T09:59:39.677Z,24.50
2022-07-25T10:02:10.731Z,24.33
2022-07-25T10:04:46.173Z,24.47
2022-07-25T10:07:16.876Z,24.60
2022-07-25T10:09:47.008Z,24.50
2022-07-25T10:12:19.423Z,24.44
2022-07-25T10:15:08.578Z,24.32
2022-07-25T10:17:37.988Z,24.09
2022-07-25T10:20:08.426Z,24.17
2022-07-25T10:22:55.691Z,24.33
2022-07-25T10:25:24.938Z,24.24
2022-07-25T10:28:00.206Z,24.22
2022-07-25T10:30:36.268Z,24.00
2022-07-25T10:33:07.722Z,24.13
2022-07-25T10:35:35.674Z,24.16
2022-07-25T10:38:06.671Z,24.17
2022-07-25T10:40:38.313Z,24.14
2022-07-25T10:43:10.963Z,23.81
2022-07-25T10:45:42.809Z,24.07
2022-07-25T10:48:13.070Z,24.20
2022-07-25T10:50:55.835Z,24.10
2022-07-25T10:53:38.499Z,24.10
2022-07-25T10:56:11.470Z,23.91
2022-07-25T10:58:51.102Z,23.74
2022-07-25T11:01:27.213Z,23.44
2022-07-25T11:03:56.585Z,23.60
2022-07-25T11:06:33.138Z,23.46
2022-07-25T11:09:01.512Z,23.48
2022-07-25T11:11:37.425Z,23.36
2022-07-25T11:14:07.037Z,23.24
2022-07-25T11:16:36.609Z,23.21
2022-07-25T11:19:04.977Z,23.10
2022-07-25T11:21:33.006Z,22.86
2022-07-25T11:24:00.990Z,22.90
2022-07-25T11:26:28.931Z,22.84
2022-07-25T11:28:56.842Z,22.76
2022-07-25T11:33:54.603Z,22.58
2022-07-25T11:36:22.619Z,22.50
2022-07-25T11:38:51.151Z,22.36
2022-07-25T11:41:30.548Z,22.15
2022-07-25T11:43:58.500Z,22.38
2022-07-25T11:46:27.012Z,22.38
2022-07-25T11:49:06.468Z,22.40
2022-07-25T11:51:38.672Z,22.40
2022-07-25T11:54:12.079Z,22.44
2022-07-25T11:56:42.922Z,22.52
2022-07-25T11:59:11.699Z,22.51
2022-07-25T12:01:41.914Z,22.53
2022-07-25T12:04:14.327Z,22.34
2022-07-25T12:06:42.889Z,22.48
2022-07-25T12:09:18.794Z,22.25
2022-07-25T12:11:48.884Z,22.27
2022-07-25T12:14:17.461Z,21.79
2022-07-25T12:16:45.465Z,21.89
2022-07-25T12:19:23.266Z,21.93
2022-07-25T12:21:51.165Z,21.88
2022-07-25T12:24:19.071Z,21.77
2022-07-25T12:26:47.242Z,21.63
2022-07-25T12:29:15.157Z,21.54
2022-07-25T12:31:42.979Z,21.53
2022-07-25T12:34:11.066Z,21.48
2022-07-25T12:36:44.085Z,21.90
2022-07-25T12:39:12.810Z,22.14
2022-07-25T12:41:42.675Z,22.18
2022-07-25T12:44:11.011Z,22.12
2022-07-25T12:46:45.816Z,21.59
2022-07-25T12:49:17.108Z,22.63
2022-07-25T12:51:46.741Z,22.86
2022-07-25T12:54:21.763Z,23.01
2022-07-25T12:56:51.023Z,23.07
2022-07-25T12:59:18.992Z,22.98
2022-07-25T13:01:46.945Z,22.83
2022-07-25T13:04:15.242Z,22.80
2022-07-25T13:06:43.233Z,22.94
2022-07-25T13:09:12.502Z,23.22
2022-07-25T13:11:40.700Z,23.44
2022-07-25T13:14:08.755Z,23.56
2022-07-25T13:16:37.991Z,23.64
2022-07-25T13:19:06.658Z,23.82
2022-07-25T13:21:35.120Z,24.00
2022-07-25T13:24:03.028Z,24.47
2022-07-25T13:26:32.911Z,24.62
2022-07-25T13:29:01.031Z,24.65
2022-07-25T13:31:29.853Z,24.44
2022-07-25T13:33:58.465Z,24.22
2022-07-25T13:36:27.348Z,24.00
2022-07-25T13:38:55.379Z,23.87
2022-07-25T13:41:23.442Z,23.72
2022-07-25T13:43:52.705Z,23.53
2022-07-25T13:46:20.703Z,23.43
2022-07-25T13:48:49.718Z,23.38
2022-07-25T13:51:17.817Z,23.23
2022-07-25T13:53:45.967Z,23.28
2022-07-25T13:56:14.330Z,23.17
2022-07-25T13:58:42.215Z,23.04
2022-07-25T14:01:12.878Z,23.28
2022-07-25T14:03:41.190Z,23.23
2022-07-25T14:06:11.427Z,23.17
2022-07-25T14:08:41.511Z,23.03
2022-07-25T14:11:09.731Z,22.95
2022-07-25T14:13:38.030Z,22.84
2022-07-25T14:16:06.564Z,22.75
2022-07-25T14:18:36.089Z,22.63
2022-07-25T14:21:04.085Z,22.56
2022-07-25T14:23:32.013Z,22.30
2022-07-25T14:26:00.263Z,22.55
2022-07-25T14:28:28.221Z,22.46
2022-07-25T14:30:56.643Z,22.59
2022-07-25T14:33:24.965Z,22.61
2022-07-25T14:35:54.440Z,22.20
2022-07-25T14:38:22.515Z,22.82
2022-07-25T14:40:50.524Z,23.03
2022-07-25T14:43:18.482Z,23.24
2022-07-25T14:45:46.450Z,23.43
2022-07-25T14:48:14.365Z,23.10
2022-07-25T14:50:42.404Z,23.54
2022-07-25T14:53:12.875Z,23.51
2022-07-25T14:55:41.257Z,23.62
2022-07-25T14:58:09.399Z,23.34
2022-07-25T15:00:41.792Z,23.43
2022-07-25T15:03:10.533Z,23.56
2022-07-25T15:05:39.524Z,23.68
2022-07-25T15:08:10.149Z,23.65
2022-07-25T15:10:39.803Z,23.97
2022-07-25T15:13:29.849Z,24.15
2022-07-25T15:15:56.310Z,24.83
2022-07-25T15:18:24.185Z,25.71
2022-07-25T15:20:52.231Z,26.48
2022-07-25T15:23:21.219Z,26.87
2022-07-25T15:26:06.041Z,26.38
2022-07-25T15:28:34.862Z,25.67
2022-07-25T15:31:03.082Z,25.31
2022-07-25T15:33:31.462Z,25.21
2022-07-25T15:36:00.296Z,25.05
2022-07-25T15:38:29.115Z,24.57
2022-07-25T15:40:58.630Z,24.53
2022-07-25T15:43:27.450Z,24.28
2022-07-25T15:45:55.558Z,24.02
2022-07-25T15:48:23.737Z,23.38
2022-07-25T15:50:52.705Z,23.56
2022-07-25T15:53:20.780Z,23.47
2022-07-25T15:55:48.664Z,23.17
2022-07-25T15:58:18.214Z,23.43
2022-07-25T16:00:46.282Z,23.10
2022-07-25T16:03:14.928Z,23.24
2022-07-25T16:05:45.375Z,23.13
2022-07-25T16:08:13.387Z,23.11
2022-07-25T16:10:41.731Z,22.92
2022-07-25T16:13:09.728Z,22.83
2022-07-25T16:15:39.786Z,22.78
2022-07-25T16:18:07.776Z,22.73
2022-07-25T16:20:35.886Z,22.73
2022-07-25T16:23:04.207Z,22.69
2022-07-25T16:25:32.327Z,22.67
2022-07-25T16:28:01.058Z,22.62
2022-07-25T16:30:29.823Z,22.33
2022-07-25T16:32:59.194Z,22.63
2022-07-25T16:35:27.313Z,22.66
2022-07-25T16:37:55.338Z,22.68
2022-07-25T16:40:27.359Z,22.72
2022-07-25T16:42:59.893Z,22.73
2022-07-25T16:45:28.075Z,22.73
2022-07-25T16:47:56.320Z,22.73
2022-07-25T16:50:25.850Z,22.71
2022-07-25T16:52:54.354Z,22.73
2022-07-25T16:55:22.456Z,22.75
2022-07-25T16:57:50.629Z,22.75
2022-07-25T17:00:18.801Z,22.74
2022-07-25T17:02:46.822Z,22.54
2022-07-25T17:05:14.896Z,22.80
2022-07-25T17:07:44.258Z,22.81
2022-07-25T17:10:12.113Z,22.81
2022-07-25T17:12:40.233Z,22.83
2022-07-25T17:15:09.459Z,22.81
2022-07-25T17:17:37.342Z,22.55
2022-07-25T17:20:06.335Z,22.73
2022-07-25T17:22:34.354Z,22.63
2022-07-25T17:25:03.651Z,22.59
2022-07-25T17:27:31.882Z,22.45
2022-07-25T17:29:59.892Z,22.30
2022-07-25T17:32:29.887Z,22.38
2022-07-25T17:34:58.309Z,22.32
2022-07-25T17:37:27.720Z,22.26
2022-07-25T17:39:56.253Z,22.12
2022-07-25T17:42:25.896Z,21.92
2022-07-25T17:44:54.222Z,21.97
2022-07-25T17:47:23.587Z,21.95
2022-07-25T17:49:51.739Z,21.89
2022-07-25T17:52:19.643Z,21.85
2022-07-25T17:54:47.557Z,21.77
2022-07-25T17:57:15.810Z,21.71
2022-07-25T17:59:45.141Z,21.67
2022-07-25T18:02:14.251Z,21.59
2022-07-25T18:04:42.337Z,21.56
2022-07-25T18:07:10.682Z,21.62
2022-07-25T18:09:38.588Z,21.56
2022-07-25T18:12:07.789Z,21.53
2022-07-25T18:14:35.701Z,21.63
2022-07-25T18:17:06.227Z,21.62
2022-07-25T18:19:34.458Z,21.58
2022-07-25T18:22:02.299Z,21.51
2022-07-25T18:24:30.931Z,21.42
2022-07-25T18:26:59.724Z,21.36
2022-07-25T18:29:27.737Z,20.82
2022-07-25T18:31:55.651Z,21.05
2022-07-25T18:34:25.180Z,20.97
2022-07-25T18:36:53.138Z,20.86
2022-07-25T18:39:21.020Z,20.97
2022-07-25T18:41:49.164Z,20.96
2022-07-25T18:44:17.616Z,20.92
2022-07-25T18:46:46.927Z,20.92
2022-07-25T18:49:15.229Z,20.88
2022-07-25T18:51:44.630Z,20.85
2022-07-25T18:54:12.471Z,20.78
2022-07-25T18:56:40.633Z,20.67
2022-07-25T18:59:09.292Z,20.80
2022-07-25T19:01:37.706Z,20.76
2022-07-25T19:04:06.748Z,20.37
2022-07-25T19:06:35.073Z,20.66
2022-07-25T19:09:04.954Z,20.72
2022-07-25T19:11:33.454Z,20.70
2022-07-25T19:14:01.430Z,20.70
2022-07-25T19:16:29.336Z,20.69
2022-07-25T19:18:57.590Z,20.46
2022-07-25T19:21:25.867Z,20.69
2022-07-25T19:23:53.842Z,20.62
2022-07-25T19:26:23.498Z,20.48
2022-07-25T19:28:51.755Z,20.71
2022-07-25T19:31:19.739Z,20.73
2022-07-25T19:33:48.121Z,20.61
2022-07-25T19:36:16.059Z,20.72
2022-07-25T19:38:43.999Z,20.70
2022-07-25T19:41:12.207Z,20.67
2022-07-25T19:43:41.817Z,20.64
2022-07-25T19:46:09.804Z,20.63
2022-07-25T19:48:38.307Z,20.61
2022-07-25T19:51:06.523Z,20.60
2022-07-25T19:53:34.413Z,20.60
2022-07-25T19:56:02.652Z,20.56
2022-07-25T19:58:34.100Z,20.60
2022-07-25T20:01:06.236Z,20.60
2022-07-25T20:03:34.211Z,20.50
2022-07-25T20:06:07.576Z,20.57
2022-07-25T20:08:36.419Z,20.55
2022-07-25T20:11:04.436Z,20.46
2022-07-25T20:13:32.332Z,20.51
2022-07-25T20:16:00.622Z,20.50
2022-07-25T20:18:29.855Z,20.49
2022-07-25T20:20:57.846Z,20.49
2022-07-25T20:23:26.925Z,20.47
2022-07-25T20:25:55.089Z,20.30
2022-07-25T20:28:22.937Z,20.28
2022-07-25T20:30:51.157Z,20.44
2022-07-25T20:33:19.547Z,20.46
2022-07-25T20:35:48.797Z,20.42
2022-07-25T20:38:17.029Z,20.39
2022-07-25T20:40:49.589Z,20.34
2022-07-25T20:43:18.359Z,20.41
2022-07-25T20:45:47.524Z,20.40
2022-07-25T20:48:15.683Z,20.33
2022-07-25T20:50:44.765Z,20.38
2022-07-25T20:53:14.188Z,20.37
2022-07-25T20:55:42.341Z,20.14
2022-07-25T20:58:10.658Z,20.37
2022-07-25T21:00:38.582Z,20.35
2022-07-25T21:03:08.096Z,20.34
2022-07-25T21:05:37.933Z,20.34
2022-07-25T21:08:06.443Z,20.36
2022-07-25T21:10:35.872Z,20.35
2022-07-25T21:13:04.066Z,20.36
2022-07-25T21:15:32.056Z,20.37
2022-07-25T21:18:00.093Z,20.14
2022-07-25T21:20:28.522Z,20.40
2022-07-25T21:22:56.414Z,20.10
2022-07-25T21:25:24.401Z,20.40
2022-07-25T21:27:53.841Z,20.39
2022-07-25T21:30:21.765Z,20.41
2022-07-25T21:32:49.741Z,20.39
2022-07-25T21:35:18.362Z,20.44
2022-07-25T21:37:46.266Z,20.46
2022-07-25T21:40:14.988Z,20.45
2022-07-25T21:42:43.602Z,20.48
2022-07-25T21:45:13.616Z,20.51
2022-07-25T21:47:41.509Z,20.53
2022-07-25T21:50:28.358Z,20.55
2022-07-25T21:52:56.540Z,20.57
2022-07-25T21:55:25.189Z,20.40
2022-07-25T21:57:54.158Z,20.48
2022-07-25T22:00:23.706Z,20.62
2022-07-25T22:02:51.800Z,20.63
2022-07-25T22:05:20.864Z,20.63
2022-07-25T22:07:48.884Z,20.56
2022-07-25T22:10:19.005Z,20.62
2022-07-25T22:12:47.097Z,20.57
2022-07-25T22:15:15.790Z,20.22
2022-07-25T22:17:49.540Z,20.61
2022-07-25T22:20:19.225Z,20.69
2022-07-25T22:22:47.826Z,20.65
2022-07-25T22:25:16.686Z,20.08
2022-07-25T22:27:45.242Z,20.73
2022-07-25T22:30:18.796Z,20.74
2022-07-25T22:32:49.606Z,20.73
2022-07-25T22:35:18.087Z,20.73
2022-07-25T22:37:46.122Z,20.72
2022-07-25T22:40:14.836Z,20.70
2022-07-25T22:42:42.790Z,20.38
2022-07-25T22:45:11.656Z,20.67
2022-07-25T22:47:39.872Z,20.66
2022-07-25T22:50:10.880Z,20.64
2022-07-25T22:52:38.778Z,20.62
2022-07-25T22:55:07.670Z,20.61
2022-07-25T22:57:36.983Z,20.31
2022-07-25T23:00:08.688Z,20.60
2022-07-25T23:02:36.718Z,20.59
2022-07-25T23:05:05.281Z,20.59
2022-07-25T23:07:35.198Z,20.58
2022-07-25T23:10:03.569Z,20.48
2022-07-25T23:12:31.440Z,20.55
2022-07-25T23:14:59.498Z,20.54
2022-07-25T23:17:27.425Z,20.43
2022-07-25T23:19:56.819Z,20.32
2022-07-25T23:22:26.918Z,20.26
2022-07-25T23:24:56.301Z,20.20
2022-07-25T23:27:24.976Z,20.18
2022-07-25T23:29:52.974Z,20.19
2022-07-25T23:32:21.074Z,20.16
2022-07-25T23:34:49.033Z,20.07
2022-07-25T23:37:17.203Z,20.02
2022-07-25T23:39:45.195Z,19.88
2022-07-25T23:42:14.442Z,19.77
2022-07-25T23:44:44.453Z,19.62
2022-07-25T23:47:12.652Z,19.59
2022-07-25T23:49:41.175Z,19.57
2022-07-25T23:52:09.224Z,19.54
2022-07-25T23:54:38.676Z,19.52
2022-07-25T23:57:07.237Z,19.50
2022-07-25T23:59:37.529Z,19.40
